sensor_id;sensor_type;location;lat;lon;timestamp;temperature;humidity
7194;DHT22;3638;48.820;9.244;2023-06-14T00:01:21;15.30;83.00
7194;DHT22;3638;48.820;9.244;2023-06-14T00:03:48;15.10;85.00
7194;DHT22;3638;48.820;9.244;2023-06-14T00:06:15;15.10;85.80
7194;DHT22;3638;48.820;9.244;2023-06-14T00:08:44;14.90;83.90
7194;DHT22;3638;48.820;9.244;2023-06-14T00:11:10;14.80;83.80
7194;DHT22;3638;48.820;9.244;2023-06-14T00:13:38;14.80;84.40
7194;DHT22;3638;48.820;9.244;2023-06-14T00:16:06;14.70;84.20
7194;DHT22;3638;48.820;9.244;2023-06-14T00:18:33;14.90;84.30
7194;DHT22;3638;48.820;9.244;2023-06-14T00:21:00;15.00;84.40
7194;DHT22;3638;48.820;9.244;2023-06-14T00:23:27;15.00;84.10
7194;DHT22;3638;48.820;9.244;2023-06-14T00:25:55;14.90;84.40
7194;DHT22;3638;48.820;9.244;2023-06-14T00:28:22;14.80;85.10
7194;DHT22;3638;48.820;9.244;2023-06-14T00:30:49;14.70;85.80
7194;DHT22;3638;48.820;9.244;2023-06-14T00:33:16;14.60;86.70
7194;DHT22;3638;48.820;9.244;2023-06-14T00:35:42;14.60;87.40
7194;DHT22;3638;48.820;9.244;2023-06-14T00:40:37;14.60;86.90
7194;DHT22;3638;48.820;9.244;2023-06-14T00:43:05;14.60;87.70
7194;DHT22;3638;48.820;9.244;2023-06-14T00:45:31;14.50;87.90
7194;DHT22;3638;48.820;9.244;2023-06-14T00:48:01;14.40;88.60
7194;DHT22;3638;48.820;9.244;2023-06-14T00:50:29;14.30;89.60
7194;DHT22;3638;48.820;9.244;2023-06-14T00:52:57;14.20;89.00
7194;DHT22;3638;48.820;9.244;2023-06-14T00:55:25;14.20;90.10
7194;DHT22;3638;48.820;9.244;2023-06-14T00:57:52;14.00;90.60
7194;DHT22;3638;48.820;9.244;2023-06-14T01:00:20;13.80;90.90
7194;DHT22;3638;48.820;9.244;2023-06-14T01:02:47;13.70;90.90
7194;DHT22;3638;48.820;9.244;2023-06-14T01:05:15;13.70;91.10
7194;DHT22;3638;48.820;9.244;2023-06-14T01:07:55;13.70;91.20
7194;DHT22;3638;48.820;9.244;2023-06-14T01:10:38;13.70;91.30
7194;DHT22;3638;48.820;9.244;2023-06-14T01:13:14;13.80;91.20
7194;DHT22;3638;48.820;9.244;2023-06-14T01:15:48;13.60;91.80
7194;DHT22;3638;48.820;9.244;2023-06-14T01:18:17;13.50;92.00
7194;DHT22;3638;48.820;9.244;2023-06-14T01:20:45;13.50;92.10
7194;DHT22;3638;48.820;9.244;2023-06-14T01:23:16;13.60;92.00
7194;DHT22;3638;48.820;9.244;2023-06-14T01:25:43;13.50;92.30
7194;DHT22;3638;48.820;9.244;2023-06-14T01:28:10;13.40;92.50
7194;DHT22;3638;48.820;9.244;2023-06-14T01:30:39;13.40;92.70
7194;DHT22;3638;48.820;9.244;2023-06-14T01:33:10;13.30;92.90
7194;DHT22;3638;48.820;9.244;2023-06-14T01:35:38;13.20;93.20
7194;DHT22;3638;48.820;9.244;2023-06-14T01:38:06;13.20;93.30
7194;DHT22;3638;48.820;9.244;2023-06-14T01:43:02;13.00;93.40
7194;DHT22;3638;48.820;9.244;2023-06-14T01:47:58;13.00;93.70
7194;DHT22;3638;48.820;9.244;2023-06-14T01:50:28;13.00;94.00
7194;DHT22;3638;48.820;9.244;2023-06-14T01:52:56;13.00;94.10
7194;DHT22;3638;48.820;9.244;2023-06-14T01:55:23;13.00;94.30
7194;DHT22;3638;48.820;9.244;2023-06-14T01:57:50;13.00;94.40
7194;DHT22;3638;48.820;9.244;2023-06-14T02:00:19;12.90;94.60
7194;DHT22;3638;48.820;9.244;2023-06-14T02:02:47;12.90;94.70
7194;DHT22;3638;48.820;9.244;2023-06-14T02:05:14;12.90;95.20
7194;DHT22;3638;48.820;9.244;2023-06-14T02:07:44;12.70;95.30
7194;DHT22;3638;48.820;9.244;2023-06-14T02:10:11;12.60;95.80
7194;DHT22;3638;48.820;9.244;2023-06-14T02:12:38;12.60;96.10
7194;DHT22;3638;48.820;9.244;2023-06-14T02:15:06;12.50;96.30
7194;DHT22;3638;48.820;9.244;2023-06-14T02:17:35;12.50;96.50
7194;DHT22;3638;48.820;9.244;2023-06-14T02:20:01;12.40;97.00
7194;DHT22;3638;48.820;9.244;2023-06-14T02:22:30;12.30;97.20
7194;DHT22;3638;48.820;9.244;2023-06-14T02:24:57;12.40;97.20
7194;DHT22;3638;48.820;9.244;2023-06-14T02:27:24;12.50;97.10
7194;DHT22;3638;48.820;9.244;2023-06-14T02:29:52;12.50;97.30
7194;DHT22;3638;48.820;9.244;2023-06-14T02:32:18;12.40;97.30
7194;DHT22;3638;48.820;9.244;2023-06-14T02:34:47;12.50;97.60
7194;DHT22;3638;48.820;9.244;2023-06-14T02:39:42;12.40;98.00
7194;DHT22;3638;48.820;9.244;2023-06-14T02:42:09;12.40;98.30
7194;DHT22;3638;48.820;9.244;2023-06-14T02:44:36;12.30;98.60
7194;DHT22;3638;48.820;9.244;2023-06-14T02:47:04;12.30;98.90
7194;DHT22;3638;48.820;9.244;2023-06-14T02:49:31;12.20;99.10
7194;DHT22;3638;48.820;9.244;2023-06-14T02:51:59;12.20;99.50
7194;DHT22;3638;48.820;9.244;2023-06-14T02:54:26;12.20;99.50
7194;DHT22;3638;48.820;9.244;2023-06-14T02:56:53;12.20;99.50
7194;DHT22;3638;48.820;9.244;2023-06-14T02:59:20;12.20;99.70
7194;DHT22;3638;48.820;9.244;2023-06-14T03:01:50;12.20;99.70
7194;DHT22;3638;48.820;9.244;2023-06-14T03:04:17;12.10;99.70
7194;DHT22;3638;48.820;9.244;2023-06-14T03:06:44;12.10;99.90
7194;DHT22;3638;48.820;9.244;2023-06-14T03:09:17;12.10;99.90
7194;DHT22;3638;48.820;9.244;2023-06-14T03:11:44;12.20;99.90
7194;DHT22;3638;48.820;9.244;2023-06-14T03:14:11;12.20;99.90
7194;DHT22;3638;48.820;9.244;2023-06-14T03:16:38;12.20;99.90
7194;DHT22;3638;48.820;9.244;2023-06-14T03:19:06;12.00;99.90
7194;DHT22;3638;48.820;9.244;2023-06-14T03:21:33;11.90;99.90
7194;DHT22;3638;48.820;9.244;2023-06-14T03:24:01;11.90;99.90
7194;DHT22;3638;48.820;9.244;2023-06-14T03:26:30;11.90;99.90
7194;DHT22;3638;48.820;9.244;2023-06-14T03:28:59;11.90;99.90
7194;DHT22;3638;48.820;9.244;2023-06-14T03:31:28;11.90;99.90
7194;DHT22;3638;48.820;9.244;2023-06-14T03:33:58;11.90;99.90
7194;DHT22;3638;48.820;9.244;2023-06-14T03:36:25;11.90;99.90
7194;DHT22;3638;48.820;9.244;2023-06-14T03:38:53;12.10;99.90
7194;DHT22;3638;48.820;9.244;2023-06-14T03:41:20;12.10;99.90
7194;DHT22;3638;48.820;9.244;2023-06-14T03:43:49;12.20;99.90
7194;DHT22;3638;48.820;9.244;2023-06-14T03:46:15;12.10;99.90
7194;DHT22;3638;48.820;9.244;2023-06-14T03:48:42;12.10;99.90
7194;DHT22;3638;48.820;9.244;2023-06-14T03:51:09;12.00;99.90
7194;DHT22;3638;48.820;9.244;2023-06-14T03:53:36;12.00;99.90
7194;DHT22;3638;48.820;9.244;2023-06-14T03:56:03;12.00;99.90
7194;DHT22;3638;48.820;9.244;2023-06-14T03:58:30;12.10;99.90
7194;DHT22;3638;48.820;9.244;2023-06-14T04:00:58;12.30;99.90
7194;DHT22;3638;48.820;9.244;2023-06-14T04:03:26;12.20;99.90
7194;DHT22;3638;48.820;9.244;2023-06-14T04:10:52;12.30;99.90
7194;DHT22;3638;48.820;9.244;2023-06-14T04:13:19;12.40;99.90
7194;DHT22;3638;48.820;9.244;2023-06-14T04:15:46;12.50;99.90
7194;DHT22;3638;48.820;9.244;2023-06-14T04:18:14;12.50;99.90
7194;DHT22;3638;48.820;9.244;2023-06-14T04:20:41;12.60;99.90
7194;DHT22;3638;48.820;9.244;2023-06-14T04:23:12;12.60;99.90
7194;DHT22;3638;48.820;9.244;2023-06-14T04:25:40;12.90;99.90
7194;DHT22;3638;48.820;9.244;2023-06-14T04:28:10;13.40;99.90
7194;DHT22;3638;48.820;9.244;2023-06-14T04:30:37;13.70;99.90
7194;DHT22;3638;48.820;9.244;2023-06-14T04:33:06;14.00;99.90
7194;DHT22;3638;48.820;9.244;2023-06-14T04:35:34;14.00;99.90
7194;DHT22;3638;48.820;9.244;2023-06-14T04:38:02;14.40;99.40
7194;DHT22;3638;48.820;9.244;2023-06-14T04:40:35;14.80;98.50
7194;DHT22;3638;48.820;9.244;2023-06-14T04:43:08;15.30;97.80
7194;DHT22;3638;48.820;9.244;2023-06-14T04:45:37;15.50;95.80
7194;DHT22;3638;48.820;9.244;2023-06-14T04:48:05;15.60;95.70
7194;DHT22;3638;48.820;9.244;2023-06-14T04:50:33;15.70;95.60
7194;DHT22;3638;48.820;9.244;2023-06-14T04:53:00;15.60;95.30
7194;DHT22;3638;48.820;9.244;2023-06-14T04:55:28;15.80;95.20
7194;DHT22;3638;48.820;9.244;2023-06-14T04:57:55;15.80;95.40
7194;DHT22;3638;48.820;9.244;2023-06-14T05:00:22;15.90;95.30
7194;DHT22;3638;48.820;9.244;2023-06-14T05:02:49;16.00;95.40
7194;DHT22;3638;48.820;9.244;2023-06-14T05:05:18;16.00;94.70
7194;DHT22;3638;48.820;9.244;2023-06-14T05:07:46;16.10;94.80
7194;DHT22;3638;48.820;9.244;2023-06-14T05:10:13;16.40;94.20
7194;DHT22;3638;48.820;9.244;2023-06-14T05:12:40;16.50;93.40
7194;DHT22;3638;48.820;9.244;2023-06-14T05:15:09;16.60;92.90
7194;DHT22;3638;48.820;9.244;2023-06-14T05:17:37;16.70;92.90
7194;DHT22;3638;48.820;9.244;2023-06-14T05:20:07;16.90;91.80
7194;DHT22;3638;48.820;9.244;2023-06-14T05:22:36;17.20;91.30
7194;DHT22;3638;48.820;9.244;2023-06-14T05:25:04;18.20;90.30
7194;DHT22;3638;48.820;9.244;2023-06-14T05:27:32;18.20;90.50
7194;DHT22;3638;48.820;9.244;2023-06-14T05:30:01;18.80;88.40
7194;DHT22;3638;48.820;9.244;2023-06-14T05:32:29;18.90;86.20
7194;DHT22;3638;48.820;9.244;2023-06-14T05:34:56;18.50;86.70
7194;DHT22;3638;48.820;9.244;2023-06-14T05:37:23;18.50;87.40
7194;DHT22;3638;48.820;9.244;2023-06-14T05:39:49;18.70;89.20
7194;DHT22;3638;48.820;9.244;2023-06-14T05:42:18;19.00;88.00
7194;DHT22;3638;48.820;9.244;2023-06-14T05:44:44;18.80;88.40
7194;DHT22;3638;48.820;9.244;2023-06-14T05:47:11;19.30;86.60
7194;DHT22;3638;48.820;9.244;2023-06-14T05:49:38;19.20;85.40
7194;DHT22;3638;48.820;9.244;2023-06-14T05:52:06;18.90;85.90
7194;DHT22;3638;48.820;9.244;2023-06-14T05:54:34;18.70;85.50
7194;DHT22;3638;48.820;9.244;2023-06-14T05:57:01;18.70;85.90
7194;DHT22;3638;48.820;9.244;2023-06-14T05:59:30;18.80;87.50
7194;DHT22;3638;48.820;9.244;2023-06-14T06:01:57;18.70;85.70
7194;DHT22;3638;48.820;9.244;2023-06-14T06:04:24;18.80;87.60
7194;DHT22;3638;48.820;9.244;2023-06-14T06:06:51;18.80;85.80
7194;DHT22;3638;48.820;9.244;2023-06-14T06:09:18;18.60;84.90
7194;DHT22;3638;48.820;9.244;2023-06-14T06:11:45;18.70;84.20
7194;DHT22;3638;48.820;9.244;2023-06-14T06:14:12;18.70;85.10
7194;DHT22;3638;48.820;9.244;2023-06-14T06:16:40;18.80;85.80
7194;DHT22;3638;48.820;9.244;2023-06-14T06:19:07;19.00;85.70
7194;DHT22;3638;48.820;9.244;2023-06-14T06:21:34;19.10;85.20
7194;DHT22;3638;48.820;9.244;2023-06-14T06:24:01;19.30;84.70
7194;DHT22;3638;48.820;9.244;2023-06-14T06:26:30;19.30;84.90
7194;DHT22;3638;48.820;9.244;2023-06-14T06:28:57;19.80;80.80
7194;DHT22;3638;48.820;9.244;2023-06-14T06:31:24;19.80;82.40
7194;DHT22;3638;48.820;9.244;2023-06-14T06:33:54;19.60;80.80
7194;DHT22;3638;48.820;9.244;2023-06-14T06:36:21;19.70;83.40
7194;DHT22;3638;48.820;9.244;2023-06-14T06:38:48;19.70;84.00
7194;DHT22;3638;48.820;9.244;2023-06-14T06:41:15;19.80;79.70
7194;DHT22;3638;48.820;9.244;2023-06-14T06:43:42;19.80;79.70
7194;DHT22;3638;48.820;9.244;2023-06-14T06:46:08;19.80;80.20
7194;DHT22;3638;48.820;9.244;2023-06-14T06:48:35;20.30;77.60
7194;DHT22;3638;48.820;9.244;2023-06-14T06:51:03;20.30;77.60
7194;DHT22;3638;48.820;9.244;2023-06-14T06:53:31;20.40;78.30
7194;DHT22;3638;48.820;9.244;2023-06-14T06:55:57;20.60;77.60
7194;DHT22;3638;48.820;9.244;2023-06-14T06:58:24;20.50;75.90
7194;DHT22;3638;48.820;9.244;2023-06-14T07:00:52;20.60;76.20
7194;DHT22;3638;48.820;9.244;2023-06-14T07:03:19;20.60;73.30
7194;DHT22;3638;48.820;9.244;2023-06-14T07:05:46;20.60;73.90
7194;DHT22;3638;48.820;9.244;2023-06-14T07:08:14;20.90;75.40
7194;DHT22;3638;48.820;9.244;2023-06-14T07:10:41;21.10;75.90
7194;DHT22;3638;48.820;9.244;2023-06-14T07:13:07;21.10;76.30
7194;DHT22;3638;48.820;9.244;2023-06-14T07:15:34;21.20;74.20
7194;DHT22;3638;48.820;9.244;2023-06-14T07:20:28;21.40;75.00
7194;DHT22;3638;48.820;9.244;2023-06-14T07:22:58;22.00;71.90
7194;DHT22;3638;48.820;9.244;2023-06-14T07:25:27;22.00;72.90
7194;DHT22;3638;48.820;9.244;2023-06-14T07:27:53;22.00;73.20
7194;DHT22;3638;48.820;9.244;2023-06-14T07:30:20;22.30;72.00
7194;DHT22;3638;48.820;9.244;2023-06-14T07:32:51;22.10;71.60
7194;DHT22;3638;48.820;9.244;2023-06-14T07:35:18;22.60;71.30
7194;DHT22;3638;48.820;9.244;2023-06-14T07:37:45;22.60;71.50
7194;DHT22;3638;48.820;9.244;2023-06-14T07:40:13;23.00;73.00
7194;DHT22;3638;48.820;9.244;2023-06-14T07:42:41;23.10;69.20
7194;DHT22;3638;48.820;9.244;2023-06-14T07:45:08;22.90;70.70
7194;DHT22;3638;48.820;9.244;2023-06-14T07:47:36;22.80;71.20
7194;DHT22;3638;48.820;9.244;2023-06-14T07:50:03;23.70;69.20
7194;DHT22;3638;48.820;9.244;2023-06-14T07:52:30;23.60;68.40
7194;DHT22;3638;48.820;9.244;2023-06-14T07:54:57;23.40;70.10
7194;DHT22;3638;48.820;9.244;2023-06-14T07:57:24;23.50;72.10
7194;DHT22;3638;48.820;9.244;2023-06-14T07:59:52;23.70;69.20
7194;DHT22;3638;48.820;9.244;2023-06-14T08:02:19;23.30;70.40
7194;DHT22;3638;48.820;9.244;2023-06-14T08:04:46;23.40;69.50
7194;DHT22;3638;48.820;9.244;2023-06-14T08:07:13;23.30;70.20
7194;DHT22;3638;48.820;9.244;2023-06-14T08:09:40;23.40;69.30
7194;DHT22;3638;48.820;9.244;2023-06-14T08:12:08;23.30;69.80
7194;DHT22;3638;48.820;9.244;2023-06-14T08:14:36;23.50;70.90
7194;DHT22;3638;48.820;9.244;2023-06-14T08:17:04;23.40;70.40
7194;DHT22;3638;48.820;9.244;2023-06-14T08:19:31;23.30;71.40
7194;DHT22;3638;48.820;9.244;2023-06-14T08:21:58;23.90;68.90
7194;DHT22;3638;48.820;9.244;2023-06-14T08:24:25;24.00;67.20
7194;DHT22;3638;48.820;9.244;2023-06-14T08:26:53;24.00;68.00
7194;DHT22;3638;48.820;9.244;2023-06-14T08:29:21;23.70;67.60
7194;DHT22;3638;48.820;9.244;2023-06-14T08:31:48;23.40;67.80
7194;DHT22;3638;48.820;9.244;2023-06-14T08:34:16;23.50;68.30
7194;DHT22;3638;48.820;9.244;2023-06-14T08:36:43;23.40;68.70
7194;DHT22;3638;48.820;9.244;2023-06-14T08:39:10;23.30;69.00
7194;DHT22;3638;48.820;9.244;2023-06-14T08:41:37;23.30;68.60
7194;DHT22;3638;48.820;9.244;2023-06-14T08:44:04;23.30;69.60
7194;DHT22;3638;48.820;9.244;2023-06-14T08:46:33;23.60;68.40
7194;DHT22;3638;48.820;9.244;2023-06-14T08:49:02;23.60;68.20
7194;DHT22;3638;48.820;9.244;2023-06-14T08:51:32;23.30;67.80
7194;DHT22;3638;48.820;9.244;2023-06-14T08:54:02;23.20;68.60
7194;DHT22;3638;48.820;9.244;2023-06-14T08:56:30;23.60;69.00
7194;DHT22;3638;48.820;9.244;2023-06-14T08:58:59;23.60;66.70
7194;DHT22;3638;48.820;9.244;2023-06-14T09:01:30;24.20;68.80
7194;DHT22;3638;48.820;9.244;2023-06-14T09:03:59;23.50;66.60
7194;DHT22;3638;48.820;9.244;2023-06-14T09:06:27;23.90;66.80
7194;DHT22;3638;48.820;9.244;2023-06-14T09:08:56;23.70;67.30
7194;DHT22;3638;48.820;9.244;2023-06-14T09:11:23;23.80;67.50
7194;DHT22;3638;48.820;9.244;2023-06-14T09:13:52;23.90;65.30
7194;DHT22;3638;48.820;9.244;2023-06-14T09:16:19;24.10;65.30
7194;DHT22;3638;48.820;9.244;2023-06-14T09:18:47;24.00;65.10
7194;DHT22;3638;48.820;9.244;2023-06-14T09:21:15;24.60;64.30
7194;DHT22;3638;48.820;9.244;2023-06-14T09:23:43;24.70;64.00
7194;DHT22;3638;48.820;9.244;2023-06-14T09:26:14;24.80;63.90
7194;DHT22;3638;48.820;9.244;2023-06-14T09:28:42;24.40;62.20
7194;DHT22;3638;48.820;9.244;2023-06-14T09:31:10;24.40;63.00
7194;DHT22;3638;48.820;9.244;2023-06-14T09:33:37;24.40;63.90
7194;DHT22;3638;48.820;9.244;2023-06-14T09:36:05;24.70;64.00
7194;DHT22;3638;48.820;9.244;2023-06-14T09:38:36;24.70;64.90
7194;DHT22;3638;48.820;9.244;2023-06-14T09:41:03;24.80;60.90
7194;DHT22;3638;48.820;9.244;2023-06-14T09:43:33;24.80;61.20
7194;DHT22;3638;48.820;9.244;2023-06-14T09:46:01;24.80;60.50
7194;DHT22;3638;48.820;9.244;2023-06-14T09:48:28;24.80;61.70
7194;DHT22;3638;48.820;9.244;2023-06-14T09:50:55;25.10;59.70
7194;DHT22;3638;48.820;9.244;2023-06-14T09:53:25;25.10;60.30
7194;DHT22;3638;48.820;9.244;2023-06-14T09:55:53;25.50;60.70
7194;DHT22;3638;48.820;9.244;2023-06-14T09:58:23;25.60;59.50
7194;DHT22;3638;48.820;9.244;2023-06-14T10:00:54;25.60;58.50
7194;DHT22;3638;48.820;9.244;2023-06-14T10:03:25;25.60;59.40
7194;DHT22;3638;48.820;9.244;2023-06-14T10:05:55;25.70;58.60
7194;DHT22;3638;48.820;9.244;2023-06-14T10:08:27;25.60;54.90
7194;DHT22;3638;48.820;9.244;2023-06-14T10:10:58;25.80;54.90
7194;DHT22;3638;48.820;9.244;2023-06-14T10:13:26;25.80;55.60
7194;DHT22;3638;48.820;9.244;2023-06-14T10:16:00;26.30;55.90
7194;DHT22;3638;48.820;9.244;2023-06-14T10:18:38;26.40;55.60
7194;DHT22;3638;48.820;9.244;2023-06-14T10:21:16;27.00;55.70
7194;DHT22;3638;48.820;9.244;2023-06-14T10:23:48;26.30;56.30
7194;DHT22;3638;48.820;9.244;2023-06-14T10:26:20;25.30;57.50
7194;DHT22;3638;48.820;9.244;2023-06-14T10:28:58;24.70;59.40
7194;DHT22;3638;48.820;9.244;2023-06-14T10:31:42;24.80;59.40
7194;DHT22;3638;48.820;9.244;2023-06-14T10:34:10;25.00;60.40
7194;DHT22;3638;48.820;9.244;2023-06-14T10:36:41;25.40;57.20
7194;DHT22;3638;48.820;9.244;2023-06-14T10:39:14;25.60;57.20
7194;DHT22;3638;48.820;9.244;2023-06-14T10:41:49;25.40;57.90
7194;DHT22;3638;48.820;9.244;2023-06-14T10:44:49;25.10;58.00
7194;DHT22;3638;48.820;9.244;2023-06-14T10:47:28;24.80;58.60
7194;DHT22;3638;48.820;9.244;2023-06-14T10:50:04;24.20;59.90
7194;DHT22;3638;48.820;9.244;2023-06-14T10:52:33;23.80;59.30
7194;DHT22;3638;48.820;9.244;2023-06-14T10:55:07;23.80;61.50
7194;DHT22;3638;48.820;9.244;2023-06-14T10:57:37;24.10;60.40
7194;DHT22;3638;48.820;9.244;2023-06-14T11:00:06;24.70;60.50
7194;DHT22;3638;48.820;9.244;2023-06-14T11:06:13;24.40;59.10
7194;DHT22;3638;48.820;9.244;2023-06-14T11:09:17;24.40;60.40
7194;DHT22;3638;48.820;9.244;2023-06-14T11:11:51;24.30;59.70
7194;DHT22;3638;48.820;9.244;2023-06-14T11:14:20;24.40;57.70
7194;DHT22;3638;48.820;9.244;2023-06-14T11:16:50;24.40;58.50
7194;DHT22;3638;48.820;9.244;2023-06-14T11:19:17;24.40;58.80
7194;DHT22;3638;48.820;9.244;2023-06-14T11:21:48;24.80;58.90
7194;DHT22;3638;48.820;9.244;2023-06-14T11:24:16;24.70;58.00
7194;DHT22;3638;48.820;9.244;2023-06-14T11:26:43;24.80;58.40
7194;DHT22;3638;48.820;9.244;2023-06-14T11:29:10;24.90;57.60
7194;DHT22;3638;48.820;9.244;2023-06-14T11:31:37;24.90;57.40
7194;DHT22;3638;48.820;9.244;2023-06-14T11:34:04;25.20;56.30
7194;DHT22;3638;48.820;9.244;2023-06-14T11:36:34;25.20;56.20
7194;DHT22;3638;48.820;9.244;2023-06-14T11:39:03;25.00;56.40
7194;DHT22;3638;48.820;9.244;2023-06-14T11:41:33;25.10;56.20
7194;DHT22;3638;48.820;9.244;2023-06-14T11:44:01;25.10;55.70
7194;DHT22;3638;48.820;9.244;2023-06-14T11:46:29;25.20;55.30
7194;DHT22;3638;48.820;9.244;2023-06-14T11:48:55;25.70;56.70
7194;DHT22;3638;48.820;9.244;2023-06-14T11:51:23;26.20;55.60
7194;DHT22;3638;48.820;9.244;2023-06-14T11:53:50;26.30;56.30
7194;DHT22;3638;48.820;9.244;2023-06-14T11:56:19;26.50;54.90
7194;DHT22;3638;48.820;9.244;2023-06-14T11:58:46;26.00;54.70
7194;DHT22;3638;48.820;9.244;2023-06-14T12:01:16;25.90;55.00
7194;DHT22;3638;48.820;9.244;2023-06-14T12:03:47;25.70;54.40
7194;DHT22;3638;48.820;9.244;2023-06-14T12:06:15;25.40;55.50
7194;DHT22;3638;48.820;9.244;2023-06-14T12:08:44;25.10;54.90
7194;DHT22;3638;48.820;9.244;2023-06-14T12:11:12;25.30;55.30
7194;DHT22;3638;48.820;9.244;2023-06-14T12:13:40;25.30;56.30
7194;DHT22;3638;48.820;9.244;2023-06-14T12:16:08;25.20;55.20
7194;DHT22;3638;48.820;9.244;2023-06-14T12:18:36;25.30;56.70
7194;DHT22;3638;48.820;9.244;2023-06-14T12:21:04;25.30;56.10
7194;DHT22;3638;48.820;9.244;2023-06-14T12:23:45;25.30;56.70
7194;DHT22;3638;48.820;9.244;2023-06-14T12:26:14;25.50;56.90
7194;DHT22;3638;48.820;9.244;2023-06-14T12:28:44;25.40;56.20
7194;DHT22;3638;48.820;9.244;2023-06-14T12:31:13;25.40;55.50
7194;DHT22;3638;48.820;9.244;2023-06-14T12:33:41;25.40;55.90
7194;DHT22;3638;48.820;9.244;2023-06-14T12:36:11;25.50;56.00
7194;DHT22;3638;48.820;9.244;2023-06-14T12:38:38;25.80;56.30
7194;DHT22;3638;48.820;9.244;2023-06-14T12:41:04;25.80;55.40
7194;DHT22;3638;48.820;9.244;2023-06-14T12:43:33;25.50;56.70
7194;DHT22;3638;48.820;9.244;2023-06-14T12:46:01;25.40;55.40
7194;DHT22;3638;48.820;9.244;2023-06-14T12:48:28;25.40;55.90
7194;DHT22;3638;48.820;9.244;2023-06-14T12:50:56;25.90;55.60
7194;DHT22;3638;48.820;9.244;2023-06-14T12:53:23;25.90;56.10
7194;DHT22;3638;48.820;9.244;2023-06-14T12:55:50;26.00;54.80
7194;DHT22;3638;48.820;9.244;2023-06-14T12:58:17;25.70;55.70
7194;DHT22;3638;48.820;9.244;2023-06-14T13:00:45;25.20;55.40
7194;DHT22;3638;48.820;9.244;2023-06-14T13:03:13;25.20;55.80
7194;DHT22;3638;48.820;9.244;2023-06-14T13:05:40;25.00;56.10
7194;DHT22;3638;48.820;9.244;2023-06-14T13:08:08;25.20;57.40
7194;DHT22;3638;48.820;9.244;2023-06-14T13:10:35;25.30;56.60
7194;DHT22;3638;48.820;9.244;2023-06-14T13:13:02;25.30;55.90
7194;DHT22;3638;48.820;9.244;2023-06-14T13:15:29;24.90;56.50
7194;DHT22;3638;48.820;9.244;2023-06-14T13:17:56;25.10;56.40
7194;DHT22;3638;48.820;9.244;2023-06-14T13:20:24;25.40;56.70
7194;DHT22;3638;48.820;9.244;2023-06-14T13:22:51;25.60;56.00
7194;DHT22;3638;48.820;9.244;2023-06-14T13:25:18;25.80;55.80
7194;DHT22;3638;48.820;9.244;2023-06-14T13:27:45;25.70;54.70
7194;DHT22;3638;48.820;9.244;2023-06-14T13:30:12;25.70;55.40
7194;DHT22;3638;48.820;9.244;2023-06-14T13:32:40;26.00;56.00
7194;DHT22;3638;48.820;9.244;2023-06-14T13:35:07;26.20;55.00
7194;DHT22;3638;48.820;9.244;2023-06-14T13:37:35;26.40;55.70
7194;DHT22;3638;48.820;9.244;2023-06-14T13:40:03;26.70;54.40
7194;DHT22;3638;48.820;9.244;2023-06-14T13:42:31;26.40;53.50
7194;DHT22;3638;48.820;9.244;2023-06-14T13:44:58;26.00;54.90
7194;DHT22;3638;48.820;9.244;2023-06-14T13:47:25;25.90;55.90
7194;DHT22;3638;48.820;9.244;2023-06-14T13:49:52;26.20;56.40
7194;DHT22;3638;48.820;9.244;2023-06-14T13:52:19;25.50;56.80
7194;DHT22;3638;48.820;9.244;2023-06-14T13:54:47;25.20;57.10
7194;DHT22;3638;48.820;9.244;2023-06-14T13:57:14;24.90;58.00
7194;DHT22;3638;48.820;9.244;2023-06-14T13:59:41;25.20;56.50
7194;DHT22;3638;48.820;9.244;2023-06-14T14:02:09;25.20;57.00
7194;DHT22;3638;48.820;9.244;2023-06-14T14:04:37;25.10;57.20
7194;DHT22;3638;48.820;9.244;2023-06-14T14:07:05;25.00;57.80
7194;DHT22;3638;48.820;9.244;2023-06-14T14:09:32;25.00;57.60
7194;DHT22;3638;48.820;9.244;2023-06-14T14:12:01;24.90;57.30
7194;DHT22;3638;48.820;9.244;2023-06-14T14:14:29;24.50;57.90
7194;DHT22;3638;48.820;9.244;2023-06-14T14:16:57;24.30;58.80
7194;DHT22;3638;48.820;9.244;2023-06-14T14:19:24;24.10;59.10
7194;DHT22;3638;48.820;9.244;2023-06-14T14:21:51;24.20;59.80
7194;DHT22;3638;48.820;9.244;2023-06-14T14:24:19;24.10;58.90
7194;DHT22;3638;48.820;9.244;2023-06-14T14:26:45;24.10;58.50
7194;DHT22;3638;48.820;9.244;2023-06-14T14:29:15;24.30;58.50
7194;DHT22;3638;48.820;9.244;2023-06-14T14:31:42;24.40;58.90
7194;DHT22;3638;48.820;9.244;2023-06-14T14:34:09;24.40;58.50
7194;DHT22;3638;48.820;9.244;2023-06-14T14:36:36;24.30;58.10
7194;DHT22;3638;48.820;9.244;2023-06-14T14:39:03;24.60;57.40
7194;DHT22;3638;48.820;9.244;2023-06-14T14:41:30;25.00;56.20
7194;DHT22;3638;48.820;9.244;2023-06-14T14:43:57;25.10;56.70
7194;DHT22;3638;48.820;9.244;2023-06-14T14:46:26;25.20;56.80
7194;DHT22;3638;48.820;9.244;2023-06-14T14:48:53;25.10;56.80
7194;DHT22;3638;48.820;9.244;2023-06-14T14:51:20;25.20;56.30
7194;DHT22;3638;48.820;9.244;2023-06-14T14:53:47;25.30;56.90
7194;DHT22;3638;48.820;9.244;2023-06-14T14:56:14;25.10;56.30
7194;DHT22;3638;48.820;9.244;2023-06-14T14:58:41;25.10;56.40
7194;DHT22;3638;48.820;9.244;2023-06-14T15:01:07;24.90;56.50
7194;DHT22;3638;48.820;9.244;2023-06-14T15:03:36;24.60;57.90
7194;DHT22;3638;48.820;9.244;2023-06-14T15:06:03;24.60;58.40
7194;DHT22;3638;48.820;9.244;2023-06-14T15:08:30;24.70;58.10
7194;DHT22;3638;48.820;9.244;2023-06-14T15:10:57;24.80;56.40
7194;DHT22;3638;48.820;9.244;2023-06-14T15:13:24;24.80;57.00
7194;DHT22;3638;48.820;9.244;2023-06-14T15:15:50;24.80;57.00
7194;DHT22;3638;48.820;9.244;2023-06-14T15:18:18;24.60;57.10
7194;DHT22;3638;48.820;9.244;2023-06-14T15:20:47;24.40;57.10
7194;DHT22;3638;48.820;9.244;2023-06-14T15:23:14;24.40;57.90
7194;DHT22;3638;48.820;9.244;2023-06-14T15:25:45;24.60;56.60
7194;DHT22;3638;48.820;9.244;2023-06-14T15:28:13;24.60;57.00
7194;DHT22;3638;48.820;9.244;2023-06-14T15:30:40;24.70;56.70
7194;DHT22;3638;48.820;9.244;2023-06-14T15:33:07;24.70;57.30
7194;DHT22;3638;48.820;9.244;2023-06-14T15:35:34;24.80;58.30
7194;DHT22;3638;48.820;9.244;2023-06-14T15:38:02;24.70;56.90
7194;DHT22;3638;48.820;9.244;2023-06-14T15:40:29;24.60;57.30
7194;DHT22;3638;48.820;9.244;2023-06-14T15:42:56;24.60;56.10
7194;DHT22;3638;48.820;9.244;2023-06-14T15:45:22;24.60;56.60
7194;DHT22;3638;48.820;9.244;2023-06-14T15:47:49;24.40;57.40
7194;DHT22;3638;48.820;9.244;2023-06-14T15:50:16;24.40;56.90
7194;DHT22;3638;48.820;9.244;2023-06-14T15:52:43;24.50;56.60
7194;DHT22;3638;48.820;9.244;2023-06-14T15:55:11;24.50;56.80
7194;DHT22;3638;48.820;9.244;2023-06-14T15:57:38;24.80;57.50
7194;DHT22;3638;48.820;9.244;2023-06-14T16:00:06;24.70;56.10
7194;DHT22;3638;48.820;9.244;2023-06-14T16:02:33;24.60;57.00
7194;DHT22;3638;48.820;9.244;2023-06-14T16:05:00;24.50;57.50
7194;DHT22;3638;48.820;9.244;2023-06-14T16:07:27;24.70;57.20
7194;DHT22;3638;48.820;9.244;2023-06-14T16:09:54;24.80;56.40
7194;DHT22;3638;48.820;9.244;2023-06-14T16:12:22;24.60;57.10
7194;DHT22;3638;48.820;9.244;2023-06-14T16:14:49;24.60;57.20
7194;DHT22;3638;48.820;9.244;2023-06-14T16:17:16;24.60;57.80
7194;DHT22;3638;48.820;9.244;2023-06-14T16:19:43;24.70;57.10
7194;DHT22;3638;48.820;9.244;2023-06-14T16:22:10;24.60;56.90
7194;DHT22;3638;48.820;9.244;2023-06-14T16:24:37;24.50;57.20
7194;DHT22;3638;48.820;9.244;2023-06-14T16:27:04;24.60;57.80
7194;DHT22;3638;48.820;9.244;2023-06-14T16:29:35;24.50;58.30